LFSI

Saint-Dizier-Robinson (BA 113) Air Base

Airport
ICAO code
LFSI
Summary
ICAO Region
EUR
ICAO Territory
Location

, Champagne-Ardenne

Serving
St.-dizier
Elevation
458 ft
Coordinates
48° 38' 10" N , 4° 53' 58" E
Metar
Observation
LFSI 091900Z AUTO 34006KT 320V020 8000 OVC005 M00/M01 Q1005
Station
St-Dizier
Date/Time
2022-12-09 19:00:00
Wind direction
340°
Wind speed
06 kts
Lowest cloud amount
overcast
Temperature
-0°C
Dew point
-1°C
Humidity
92%
QNH
1005 hPa
Weather condition
n/a

Runways

Designator Length Width Surface Rops
11/29 2412 45 ASP No/No

Airport map

Aerial View

SKYbrary Partners:

Safety knowledge contributed by: